sensor_id;sensor_type;location;lat;lon;timestamp;pressure;altitude;pressure_sealevel;temperature;humidity
16664;BME280;8445;51.270;9.434;2023-04-04T00:00:50;100765.78;;;-1.66;49.36
16664;BME280;8445;51.270;9.434;2023-04-04T00:03:25;100765.78;;;-1.63;49.52
16664;BME280;8445;51.270;9.434;2023-04-04T00:05:53;100766.63;;;-1.64;49.17
16664;BME280;8445;51.270;9.434;2023-04-04T00:08:18;100764.91;;;-1.68;49.92
16664;BME280;8445;51.270;9.434;2023-04-04T00:10:46;100770.97;;;-1.69;49.71
16664;BME280;8445;51.270;9.434;2023-04-04T00:13:12;100762.34;;;-1.77;49.82
16664;BME280;8445;51.270;9.434;2023-04-04T00:15:37;100763.25;;;-1.83;49.60
16664;BME280;8445;51.270;9.434;2023-04-04T00:18:03;100772.75;;;-1.82;49.54
16664;BME280;8445;51.270;9.434;2023-04-04T00:20:30;100767.56;;;-1.85;49.66
16664;BME280;8445;51.270;9.434;2023-04-04T00:22:56;100769.28;;;-1.92;49.23
16664;BME280;8445;51.270;9.434;2023-04-04T00:25:22;100773.66;;;-2.02;50.38
16664;BME280;8445;51.270;9.434;2023-04-04T00:27:48;100774.50;;;-2.09;50.72
16664;BME280;8445;51.270;9.434;2023-04-04T00:30:17;100779.72;;;-2.15;50.32
16664;BME280;8445;51.270;9.434;2023-04-04T00:32:42;100778.84;;;-2.17;50.04
16664;BME280;8445;51.270;9.434;2023-04-04T00:35:08;100778.00;;;-2.21;50.48
16664;BME280;8445;51.270;9.434;2023-04-04T00:37:34;100786.63;;;-2.20;50.70
16664;BME280;8445;51.270;9.434;2023-04-04T00:39:59;100784.03;;;-2.17;50.22
16664;BME280;8445;51.270;9.434;2023-04-04T00:42:26;100776.25;;;-2.17;50.29
16664;BME280;8445;51.270;9.434;2023-04-04T00:44:52;100768.50;;;-2.16;50.27
16664;BME280;8445;51.270;9.434;2023-04-04T00:47:21;100765.00;;;-2.13;50.31
16664;BME280;8445;51.270;9.434;2023-04-04T00:49:48;100759.81;;;-2.13;50.23
16664;BME280;8445;51.270;9.434;2023-04-04T00:52:15;100764.16;;;-2.14;50.05
16664;BME280;8445;51.270;9.434;2023-04-04T00:54:43;100764.16;;;-2.11;50.59
16664;BME280;8445;51.270;9.434;2023-04-04T00:57:08;100761.56;;;-2.12;50.36
16664;BME280;8445;51.270;9.434;2023-04-04T00:59:37;100765.00;;;-2.16;50.51
16664;BME280;8445;51.270;9.434;2023-04-04T01:02:05;100765.03;;;-2.22;49.37
16664;BME280;8445;51.270;9.434;2023-04-04T01:04:33;100759.84;;;-2.29;50.55
16664;BME280;8445;51.270;9.434;2023-04-04T01:07:01;100760.69;;;-2.30;50.27
16664;BME280;8445;51.270;9.434;2023-04-04T01:09:32;100756.41;;;-2.29;50.48
16664;BME280;8445;51.270;9.434;2023-04-04T01:11:58;100758.13;;;-2.38;50.56
16664;BME280;8445;51.270;9.434;2023-04-04T01:14:26;100763.31;;;-2.39;50.30
16664;BME280;8445;51.270;9.434;2023-04-04T01:16:52;100762.44;;;-2.40;49.75
16664;BME280;8445;51.270;9.434;2023-04-04T01:19:45;100756.41;;;-2.40;52.34
16664;BME280;8445;51.270;9.434;2023-04-04T01:22:17;100758.13;;;-2.51;51.50
16664;BME280;8445;51.270;9.434;2023-04-04T01:24:48;100761.56;;;-2.60;50.31
16664;BME280;8445;51.270;9.434;2023-04-04T01:27:16;100751.22;;;-2.62;50.64
16664;BME280;8445;51.270;9.434;2023-04-04T01:29:51;100756.41;;;-2.66;50.55
16664;BME280;8445;51.270;9.434;2023-04-04T01:32:44;100748.63;;;-2.66;50.13
16664;BME280;8445;51.270;9.434;2023-04-04T01:35:22;100752.94;;;-2.70;50.42
16664;BME280;8445;51.270;9.434;2023-04-04T01:38:13;100752.06;;;-2.72;51.16
16664;BME280;8445;51.270;9.434;2023-04-04T01:41:05;100765.88;;;-2.78;51.73
16664;BME280;8445;51.270;9.434;2023-04-04T01:43:33;100758.09;;;-2.89;50.39
16664;BME280;8445;51.270;9.434;2023-04-04T01:46:00;100752.91;;;-2.92;50.99
16664;BME280;8445;51.270;9.434;2023-04-04T01:48:27;100744.28;;;-2.91;51.28
16664;BME280;8445;51.270;9.434;2023-04-04T01:50:55;100745.13;;;-2.92;50.99
16664;BME280;8445;51.270;9.434;2023-04-04T01:53:23;100735.66;;;-2.87;51.13
16664;BME280;8445;51.270;9.434;2023-04-04T01:55:49;100738.22;;;-2.87;50.91
16664;BME280;8445;51.270;9.434;2023-04-04T01:58:15;100736.53;;;-2.77;50.88
16664;BME280;8445;51.270;9.434;2023-04-04T02:00:41;100733.94;;;-2.72;50.18
16664;BME280;8445;51.270;9.434;2023-04-04T02:03:06;100728.75;;;-2.69;50.72
16664;BME280;8445;51.270;9.434;2023-04-04T02:05:32;100725.31;;;-2.74;50.86
16664;BME280;8445;51.270;9.434;2023-04-04T02:07:57;100720.13;;;-2.79;50.11
16664;BME280;8445;51.270;9.434;2023-04-04T02:10:32;100722.72;;;-2.74;51.55
16664;BME280;8445;51.270;9.434;2023-04-04T02:12:58;100716.66;;;-2.76;51.96
16664;BME280;8445;51.270;9.434;2023-04-04T02:15:24;100715.81;;;-2.80;51.21
16664;BME280;8445;51.270;9.434;2023-04-04T02:17:49;100720.13;;;-2.80;51.74
16664;BME280;8445;51.270;9.434;2023-04-04T02:20:15;100716.66;;;-2.83;52.00
16664;BME280;8445;51.270;9.434;2023-04-04T02:22:53;100730.47;;;-2.88;53.99
16664;BME280;8445;51.270;9.434;2023-04-04T02:25:20;100716.66;;;-2.89;52.18
16664;BME280;8445;51.270;9.434;2023-04-04T02:27:46;100720.97;;;-2.88;51.36
16664;BME280;8445;51.270;9.434;2023-04-04T02:30:12;100722.72;;;-2.85;51.79
16664;BME280;8445;51.270;9.434;2023-04-04T02:32:38;100735.63;;;-2.93;51.55
16664;BME280;8445;51.270;9.434;2023-04-04T02:35:08;100720.13;;;-3.02;51.21
16664;BME280;8445;51.270;9.434;2023-04-04T02:37:39;100719.22;;;-3.09;51.31
16664;BME280;8445;51.270;9.434;2023-04-04T02:40:11;100714.03;;;-3.14;51.42
16664;BME280;8445;51.270;9.434;2023-04-04T02:42:43;100713.16;;;-3.19;51.45
16664;BME280;8445;51.270;9.434;2023-04-04T02:45:09;100716.59;;;-3.21;51.34
16664;BME280;8445;51.270;9.434;2023-04-04T02:47:37;100709.72;;;-3.24;51.37
16664;BME280;8445;51.270;9.434;2023-04-04T02:50:05;100705.38;;;-3.25;50.56
16664;BME280;8445;51.270;9.434;2023-04-04T02:52:36;100704.53;;;-3.24;51.64
16664;BME280;8445;51.270;9.434;2023-04-04T02:55:08;100697.63;;;-3.22;50.58
16664;BME280;8445;51.270;9.434;2023-04-04T02:57:37;100698.50;;;-3.20;50.38
16664;BME280;8445;51.270;9.434;2023-04-04T03:00:07;100695.03;;;-3.22;50.70
16664;BME280;8445;51.270;9.434;2023-04-04T03:02:34;100697.63;;;-3.25;50.68
16664;BME280;8445;51.270;9.434;2023-04-04T03:05:00;100697.63;;;-3.33;52.04
16664;BME280;8445;51.270;9.434;2023-04-04T03:07:28;100695.84;;;-3.42;50.80
16664;BME280;8445;51.270;9.434;2023-04-04T03:09:57;100686.38;;;-3.44;51.08
16664;BME280;8445;51.270;9.434;2023-04-04T03:12:22;100687.22;;;-3.45;52.45
16664;BME280;8445;51.270;9.434;2023-04-04T03:14:49;100693.25;;;-3.45;51.64
16664;BME280;8445;51.270;9.434;2023-04-04T03:17:15;100684.66;;;-3.40;52.44
16664;BME280;8445;51.270;9.434;2023-04-04T03:19:44;100689.84;;;-3.42;50.68
16664;BME280;8445;51.270;9.434;2023-04-04T03:22:10;100691.53;;;-3.43;53.15
16664;BME280;8445;51.270;9.434;2023-04-04T03:24:36;100683.78;;;-3.41;50.98
16664;BME280;8445;51.270;9.434;2023-04-04T03:27:02;100682.06;;;-3.37;51.41
16664;BME280;8445;51.270;9.434;2023-04-04T03:29:27;100682.09;;;-3.31;51.89
16664;BME280;8445;51.270;9.434;2023-04-04T03:31:59;100685.53;;;-3.32;51.11
16664;BME280;8445;51.270;9.434;2023-04-04T03:34:27;100683.81;;;-3.33;51.80
16664;BME280;8445;51.270;9.434;2023-04-04T03:36:52;100684.66;;;-3.40;52.17
16664;BME280;8445;51.270;9.434;2023-04-04T03:39:19;100685.50;;;-3.49;52.79
16664;BME280;8445;51.270;9.434;2023-04-04T03:41:44;100680.31;;;-3.57;52.69
16664;BME280;8445;51.270;9.434;2023-04-04T03:44:20;100676.84;;;-3.65;51.83
16664;BME280;8445;51.270;9.434;2023-04-04T03:46:45;100679.41;;;-3.68;52.88
16664;BME280;8445;51.270;9.434;2023-04-04T03:49:12;100680.25;;;-3.68;52.61
16664;BME280;8445;51.270;9.434;2023-04-04T03:51:38;100670.75;;;-3.69;52.99
16664;BME280;8445;51.270;9.434;2023-04-04T03:54:03;100671.63;;;-3.75;53.61
16664;BME280;8445;51.270;9.434;2023-04-04T03:56:30;100661.22;;;-3.82;53.46
16664;BME280;8445;51.270;9.434;2023-04-04T03:59:01;100667.28;;;-3.85;53.41
16664;BME280;8445;51.270;9.434;2023-04-04T04:01:26;100663.81;;;-3.89;52.79
16664;BME280;8445;51.270;9.434;2023-04-04T04:03:52;100660.34;;;-3.89;53.62
16664;BME280;8445;51.270;9.434;2023-04-04T04:06:18;100659.47;;;-3.91;54.48
16664;BME280;8445;51.270;9.434;2023-04-04T04:08:46;100656.94;;;-3.87;53.35
16664;BME280;8445;51.270;9.434;2023-04-04T04:11:12;100653.50;;;-3.78;53.11
16664;BME280;8445;51.270;9.434;2023-04-04T04:13:40;100650.91;;;-3.76;52.39
16664;BME280;8445;51.270;9.434;2023-04-04T04:16:06;100645.75;;;-3.75;53.69
16664;BME280;8445;51.270;9.434;2023-04-04T04:18:34;100649.19;;;-3.74;52.91
16664;BME280;8445;51.270;9.434;2023-04-04T04:21:00;100642.28;;;-3.81;53.44
16664;BME280;8445;51.270;9.434;2023-04-04T04:23:31;100646.56;;;-3.91;52.52
16664;BME280;8445;51.270;9.434;2023-04-04T04:25:57;100639.66;;;-3.95;53.56
16664;BME280;8445;51.270;9.434;2023-04-04T04:28:26;100650.81;;;-4.03;53.50
16664;BME280;8445;51.270;9.434;2023-04-04T04:30:55;100645.63;;;-4.07;52.81
16664;BME280;8445;51.270;9.434;2023-04-04T04:33:28;100648.25;;;-4.04;53.81
16664;BME280;8445;51.270;9.434;2023-04-04T04:36:01;100645.63;;;-4.06;53.55
16664;BME280;8445;51.270;9.434;2023-04-04T04:38:32;100649.06;;;-4.07;53.39
16664;BME280;8445;51.270;9.434;2023-04-04T04:41:04;100650.81;;;-4.06;53.03
16664;BME280;8445;51.270;9.434;2023-04-04T04:43:38;100649.06;;;-4.07;52.89
16664;BME280;8445;51.270;9.434;2023-04-04T04:46:05;100647.34;;;-4.05;54.35
16664;BME280;8445;51.270;9.434;2023-04-04T04:48:38;100651.69;;;-4.05;53.15
16664;BME280;8445;51.270;9.434;2023-04-04T04:51:04;100657.72;;;-4.02;53.16
16664;BME280;8445;51.270;9.434;2023-04-04T04:53:39;100660.28;;;-4.02;54.00
16664;BME280;8445;51.270;9.434;2023-04-04T04:56:05;100659.47;;;-3.99;53.58
16664;BME280;8445;51.270;9.434;2023-04-04T04:58:33;100650.00;;;-3.92;52.96
16664;BME280;8445;51.270;9.434;2023-04-04T05:01:03;100654.34;;;-3.85;53.84
16664;BME280;8445;51.270;9.434;2023-04-04T05:03:36;100656.09;;;-3.81;53.70
16664;BME280;8445;51.270;9.434;2023-04-04T05:06:04;100648.34;;;-3.73;53.60
16664;BME280;8445;51.270;9.434;2023-04-04T05:08:31;100658.72;;;-3.61;54.22
16664;BME280;8445;51.270;9.434;2023-04-04T05:11:04;100651.00;;;-3.37;53.45
16664;BME280;8445;51.270;9.434;2023-04-04T05:13:30;100654.50;;;-3.18;54.38
16664;BME280;8445;51.270;9.434;2023-04-04T05:15:56;100658.84;;;-3.03;54.63
16664;BME280;8445;51.270;9.434;2023-04-04T05:18:24;100657.09;;;-2.86;53.95
16664;BME280;8445;51.270;9.434;2023-04-04T05:20:57;100653.66;;;-2.69;54.19
16664;BME280;8445;51.270;9.434;2023-04-04T05:23:26;100657.94;;;-2.54;54.10
16664;BME280;8445;51.270;9.434;2023-04-04T05:25:57;100653.63;;;-2.41;54.58
16664;BME280;8445;51.270;9.434;2023-04-04T05:28:27;100657.00;;;-2.27;54.56
16664;BME280;8445;51.270;9.434;2023-04-04T05:30:57;100655.28;;;-2.18;54.97
16664;BME280;8445;51.270;9.434;2023-04-04T05:33:25;100666.47;;;-2.07;54.53
16664;BME280;8445;51.270;9.434;2023-04-04T05:36:16;100661.25;;;-2.02;54.81
16664;BME280;8445;51.270;9.434;2023-04-04T05:38:53;100662.13;;;-1.96;54.63
16664;BME280;8445;51.270;9.434;2023-04-04T05:41:22;100660.34;;;-1.84;54.56
16664;BME280;8445;51.270;9.434;2023-04-04T05:43:51;100669.78;;;-1.74;54.06
16664;BME280;8445;51.270;9.434;2023-04-04T05:46:21;100671.47;;;-1.57;53.49
16664;BME280;8445;51.270;9.434;2023-04-04T05:48:50;100668.78;;;-1.42;54.05
16664;BME280;8445;51.270;9.434;2023-04-04T05:51:20;100676.50;;;-1.29;53.56
16664;BME280;8445;51.270;9.434;2023-04-04T05:53:53;100674.72;;;-1.18;54.32
16664;BME280;8445;51.270;9.434;2023-04-04T05:56:26;100672.91;;;-1.10;53.95
16664;BME280;8445;51.270;9.434;2023-04-04T05:58:54;100681.47;;;-0.98;53.53
16664;BME280;8445;51.270;9.434;2023-04-04T06:01:24;100681.44;;;-0.91;54.37
16664;BME280;8445;51.270;9.434;2023-04-04T06:03:52;100684.84;;;-0.84;53.52
16664;BME280;8445;51.270;9.434;2023-04-04T06:06:27;100688.25;;;-0.76;53.93
16664;BME280;8445;51.270;9.434;2023-04-04T06:08:56;100692.50;;;-0.70;53.77
16664;BME280;8445;51.270;9.434;2023-04-04T06:11:21;100689.91;;;-0.65;54.29
16664;BME280;8445;51.270;9.434;2023-04-04T06:13:50;100698.47;;;-0.57;53.82
16664;BME280;8445;51.270;9.434;2023-04-04T06:16:20;100700.13;;;-0.48;54.01
16664;BME280;8445;51.270;9.434;2023-04-04T06:18:47;100700.03;;;-0.37;53.80
16664;BME280;8445;51.270;9.434;2023-04-04T06:21:15;100702.53;;;-0.28;54.08
16664;BME280;8445;51.270;9.434;2023-04-04T06:23:53;100704.19;;;-0.18;53.59
16664;BME280;8445;51.270;9.434;2023-04-04T06:26:20;100705.84;;;-0.10;53.83
16664;BME280;8445;51.270;9.434;2023-04-04T06:28:50;100704.94;;;-0.06;54.18
16664;BME280;8445;51.270;9.434;2023-04-04T06:31:29;100707.44;;;0.02;54.47
16664;BME280;8445;51.270;9.434;2023-04-04T06:34:00;100706.53;;;0.04;53.78
16664;BME280;8445;51.270;9.434;2023-04-04T06:36:28;100713.31;;;0.18;53.52
16664;BME280;8445;51.270;9.434;2023-04-04T06:38:59;100712.34;;;0.28;53.96
16664;BME280;8445;51.270;9.434;2023-04-04T06:41:24;100714.81;;;0.40;53.68
16664;BME280;8445;51.270;9.434;2023-04-04T06:43:52;100713.94;;;0.41;53.63
16664;BME280;8445;51.270;9.434;2023-04-04T06:46:17;100706.03;;;0.48;53.75
16664;BME280;8445;51.270;9.434;2023-04-04T06:48:43;100718.09;;;0.55;53.14
16664;BME280;8445;51.270;9.434;2023-04-04T06:51:09;100716.22;;;0.63;53.33
16664;BME280;8445;51.270;9.434;2023-04-04T06:53:39;100710.06;;;0.72;53.55
16664;BME280;8445;51.270;9.434;2023-04-04T06:56:08;100702.16;;;0.77;53.62
16664;BME280;8445;51.270;9.434;2023-04-04T06:58:34;100704.69;;;0.84;53.56
16664;BME280;8445;51.270;9.434;2023-04-04T07:01:00;100719.22;;;0.99;53.28
16664;BME280;8445;51.270;9.434;2023-04-04T07:03:26;100712.06;;;1.14;53.23
16664;BME280;8445;51.270;9.434;2023-04-04T07:05:52;100709.31;;;1.22;53.74
16664;BME280;8445;51.270;9.434;2023-04-04T07:08:17;100715.25;;;1.31;53.74
16664;BME280;8445;51.270;9.434;2023-04-04T07:10:43;100711.59;;;1.42;53.63
16664;BME280;8445;51.270;9.434;2023-04-04T07:13:09;100714.94;;;1.50;53.29
16664;BME280;8445;51.270;9.434;2023-04-04T07:15:35;100713.91;;;1.59;53.66
16664;BME280;8445;51.270;9.434;2023-04-04T07:18:01;100719.88;;;1.67;53.78
16664;BME280;8445;51.270;9.434;2023-04-04T07:20:27;100713.56;;;1.79;53.44
16664;BME280;8445;51.270;9.434;2023-04-04T07:22:53;100719.50;;;1.87;53.99
16664;BME280;8445;51.270;9.434;2023-04-04T07:25:19;100717.59;;;1.96;53.87
16664;BME280;8445;51.270;9.434;2023-04-04T07:27:47;100717.56;;;1.99;53.55
16664;BME280;8445;51.270;9.434;2023-04-04T07:30:13;100719.34;;;1.97;53.68
16664;BME280;8445;51.270;9.434;2023-04-04T07:32:38;100721.06;;;1.98;54.08
16664;BME280;8445;51.270;9.434;2023-04-04T07:35:05;100721.94;;;1.98;53.83
16664;BME280;8445;51.270;9.434;2023-04-04T07:37:31;100726.22;;;2.01;53.83
16664;BME280;8445;51.270;9.434;2023-04-04T07:39:57;100712.28;;;2.02;53.08
16664;BME280;8445;51.270;9.434;2023-04-04T07:42:24;100713.09;;;2.04;53.99
16664;BME280;8445;51.270;9.434;2023-04-04T07:44:50;100717.28;;;2.14;53.80
16664;BME280;8445;51.270;9.434;2023-04-04T07:47:19;100710.16;;;2.22;53.58
16664;BME280;8445;51.270;9.434;2023-04-04T07:49:45;100709.25;;;2.24;53.48
16664;BME280;8445;51.270;9.434;2023-04-04T07:52:11;100716.28;;;2.20;53.88
16664;BME280;8445;51.270;9.434;2023-04-04T07:54:37;100701.38;;;2.25;53.32
16664;BME280;8445;51.270;9.434;2023-04-04T07:57:04;100704.81;;;2.29;53.05
16664;BME280;8445;51.270;9.434;2023-04-04T07:59:35;100706.47;;;2.33;53.20
16664;BME280;8445;51.270;9.434;2023-04-04T08:02:00;100704.53;;;2.41;52.54
16664;BME280;8445;51.270;9.434;2023-04-04T08:04:28;100705.16;;;2.52;51.95
16664;BME280;8445;51.270;9.434;2023-04-04T08:06:56;100708.53;;;2.59;52.33
16664;BME280;8445;51.270;9.434;2023-04-04T08:09:23;100704.91;;;2.65;52.51
16664;BME280;8445;51.270;9.434;2023-04-04T08:11:51;100705.47;;;2.79;52.01
16664;BME280;8445;51.270;9.434;2023-04-04T08:14:19;100711.47;;;2.83;52.33
16664;BME280;8445;51.270;9.434;2023-04-04T08:16:46;100707.19;;;2.80;51.97
16664;BME280;8445;51.270;9.434;2023-04-04T08:19:12;100704.38;;;2.90;52.04
16664;BME280;8445;51.270;9.434;2023-04-04T08:21:37;100702.50;;;2.95;52.05
16664;BME280;8445;51.270;9.434;2023-04-04T08:24:03;100701.38;;;3.05;51.32
16664;BME280;8445;51.270;9.434;2023-04-04T08:26:29;100702.00;;;3.17;51.54
16664;BME280;8445;51.270;9.434;2023-04-04T08:28:54;100704.41;;;3.26;51.58
16664;BME280;8445;51.270;9.434;2023-04-04T08:31:20;100700.72;;;3.33;51.74
16664;BME280;8445;51.270;9.434;2023-04-04T08:33:49;100708.50;;;3.36;51.57
16664;BME280;8445;51.270;9.434;2023-04-04T08:36:15;100695.06;;;3.52;51.50
16664;BME280;8445;51.270;9.434;2023-04-04T08:38:43;100688.66;;;3.62;50.45
16664;BME280;8445;51.270;9.434;2023-04-04T08:41:10;100693.66;;;3.71;51.33
16664;BME280;8445;51.270;9.434;2023-04-04T08:43:37;100690.63;;;3.87;51.08
16664;BME280;8445;51.270;9.434;2023-04-04T08:46:07;100691.84;;;4.07;50.84
16664;BME280;8445;51.270;9.434;2023-04-04T08:48:34;100688.53;;;4.32;51.43
16664;BME280;8445;51.270;9.434;2023-04-04T08:51:02;100678.59;;;4.43;50.92
16664;BME280;8445;51.270;9.434;2023-04-04T08:53:29;100681.94;;;4.48;50.62
16664;BME280;8445;51.270;9.434;2023-04-04T08:55:58;100690.72;;;4.45;50.45
16664;BME280;8445;51.270;9.434;2023-04-04T08:58:24;100688.84;;;4.51;50.70
16664;BME280;8445;51.270;9.434;2023-04-04T09:00:54;100693.34;;;4.45;50.31
16664;BME280;8445;51.270;9.434;2023-04-04T09:03:24;100682.75;;;4.50;50.24
16664;BME280;8445;51.270;9.434;2023-04-04T09:05:55;100685.00;;;4.63;50.96
16664;BME280;8445;51.270;9.434;2023-04-04T09:08:23;100682.91;;;4.74;50.48
16664;BME280;8445;51.270;9.434;2023-04-04T09:10:49;100684.25;;;4.87;50.60
16664;BME280;8445;51.270;9.434;2023-04-04T09:13:15;100692.81;;;4.93;50.26
16664;BME280;8445;51.270;9.434;2023-04-04T09:15:47;100688.44;;;4.93;50.14
16664;BME280;8445;51.270;9.434;2023-04-04T09:18:14;100686.03;;;4.85;50.23
16664;BME280;8445;51.270;9.434;2023-04-04T09:20:44;100690.72;;;4.75;50.05
16664;BME280;8445;51.270;9.434;2023-04-04T09:23:15;100686.31;;;4.76;50.15
16664;BME280;8445;51.270;9.434;2023-04-04T09:25:49;100684.50;;;4.78;48.37
16664;BME280;8445;51.270;9.434;2023-04-04T09:28:15;100686.38;;;4.74;50.52
16664;BME280;8445;51.270;9.434;2023-04-04T09:30:41;100684.41;;;4.81;50.50
16664;BME280;8445;51.270;9.434;2023-04-04T09:33:12;100680.97;;;4.81;49.98
16664;BME280;8445;51.270;9.434;2023-04-04T09:35:39;100686.13;;;4.82;50.05
16664;BME280;8445;51.270;9.434;2023-04-04T09:38:08;100678.25;;;4.84;50.10
16664;BME280;8445;51.270;9.434;2023-04-04T09:40:37;100676.16;;;4.95;49.48
16664;BME280;8445;51.270;9.434;2023-04-04T09:43:06;100671.47;;;5.05;49.33
16664;BME280;8445;51.270;9.434;2023-04-04T09:45:38;100675.69;;;5.09;49.77
16664;BME280;8445;51.270;9.434;2023-04-04T09:48:08;100676.66;;;5.33;49.17
16664;BME280;8445;51.270;9.434;2023-04-04T09:50:35;100668.50;;;5.68;49.97
16664;BME280;8445;51.270;9.434;2023-04-04T09:53:01;100667.44;;;5.98;49.75
16664;BME280;8445;51.270;9.434;2023-04-04T09:55:36;100669.78;;;6.31;49.63
16664;BME280;8445;51.270;9.434;2023-04-04T09:58:12;100663.47;;;6.59;48.95
16664;BME280;8445;51.270;9.434;2023-04-04T10:00:39;100664.19;;;6.62;49.08
16664;BME280;8445;51.270;9.434;2023-04-04T10:03:06;100668.94;;;6.30;48.33
16664;BME280;8445;51.270;9.434;2023-04-04T10:05:32;100672.75;;;5.96;48.62
16664;BME280;8445;51.270;9.434;2023-04-04T10:07:58;100667.56;;;5.69;48.25
16664;BME280;8445;51.270;9.434;2023-04-04T10:10:26;100673.22;;;5.31;47.78
16664;BME280;8445;51.270;9.434;2023-04-04T10:12:52;100667.34;;;5.25;49.33
16664;BME280;8445;51.270;9.434;2023-04-04T10:15:21;100668.19;;;5.25;48.89
16664;BME280;8445;51.270;9.434;2023-04-04T10:17:49;100661.75;;;5.34;48.74
16664;BME280;8445;51.270;9.434;2023-04-04T10:20:17;100665.53;;;5.27;48.53
16664;BME280;8445;51.270;9.434;2023-04-04T10:22:44;100662.19;;;5.22;48.18
16664;BME280;8445;51.270;9.434;2023-04-04T10:25:10;100660.56;;;5.17;48.75
16664;BME280;8445;51.270;9.434;2023-04-04T10:27:36;100662.50;;;5.11;48.06
16664;BME280;8445;51.270;9.434;2023-04-04T10:30:03;100660.66;;;5.14;48.42
16664;BME280;8445;51.270;9.434;2023-04-04T10:35:01;100658.84;;;5.16;48.38
16664;BME280;8445;51.270;9.434;2023-04-04T10:37:31;100652.69;;;5.17;48.07
16664;BME280;8445;51.270;9.434;2023-04-04T10:40:09;100648.91;;;5.26;46.22
16664;BME280;8445;51.270;9.434;2023-04-04T10:42:40;100640.88;;;5.31;47.60
16664;BME280;8445;51.270;9.434;2023-04-04T10:45:07;100637.13;;;5.38;47.49
16664;BME280;8445;51.270;9.434;2023-04-04T10:47:35;100640.25;;;5.49;47.75
16664;BME280;8445;51.270;9.434;2023-04-04T10:50:02;100632.25;;;5.53;47.66
16664;BME280;8445;51.270;9.434;2023-04-04T10:52:30;100619.03;;;5.56;47.63
16664;BME280;8445;51.270;9.434;2023-04-04T10:54:59;100627.59;;;5.61;47.76
16664;BME280;8445;51.270;9.434;2023-04-04T10:57:26;100618.59;;;5.68;47.89
16664;BME280;8445;51.270;9.434;2023-04-04T11:00:05;100632.66;;;5.67;46.51
16664;BME280;8445;51.270;9.434;2023-04-04T11:02:46;100627.88;;;5.53;45.32
16664;BME280;8445;51.270;9.434;2023-04-04T11:05:37;100604.19;;;5.55;46.97
16664;BME280;8445;51.270;9.434;2023-04-04T11:08:15;100609.34;;;5.58;47.67
16664;BME280;8445;51.270;9.434;2023-04-04T11:10:48;100605.69;;;5.62;47.29
16664;BME280;8445;51.270;9.434;2023-04-04T11:13:25;100601.66;;;5.53;46.96
16664;BME280;8445;51.270;9.434;2023-04-04T11:15:59;100609.84;;;5.44;45.14
16664;BME280;8445;51.270;9.434;2023-04-04T11:21:00;100593.53;;;5.59;47.35
16664;BME280;8445;51.270;9.434;2023-04-04T11:23:25;100591.56;;;5.66;46.74
16664;BME280;8445;51.270;9.434;2023-04-04T11:25:55;100585.97;;;5.75;46.51
16664;BME280;8445;51.270;9.434;2023-04-04T11:28:27;100584.03;;;5.81;45.82
16664;BME280;8445;51.270;9.434;2023-04-04T11:34:05;100586.66;;;5.81;45.29
16664;BME280;8445;51.270;9.434;2023-04-04T11:42:10;100581.25;;;6.09;44.54
16664;BME280;8445;51.270;9.434;2023-04-04T11:47:24;100578.78;;;6.04;45.62
16664;BME280;8445;51.270;9.434;2023-04-04T11:49:51;100581.31;;;6.07;45.94
16664;BME280;8445;51.270;9.434;2023-04-04T11:52:17;100573.06;;;6.17;46.59
16664;BME280;8445;51.270;9.434;2023-04-04T11:54:45;100565.75;;;6.25;46.55
16664;BME280;8445;51.270;9.434;2023-04-04T11:57:12;100562.41;;;6.44;46.72
16664;BME280;8445;51.270;9.434;2023-04-04T11:59:42;100556.66;;;6.56;46.21
16664;BME280;8445;51.270;9.434;2023-04-04T12:02:12;100556.91;;;6.72;46.68
16664;BME280;8445;51.270;9.434;2023-04-04T12:04:39;100553.94;;;6.80;46.11
16664;BME280;8445;51.270;9.434;2023-04-04T12:07:08;100549.81;;;6.74;45.61
16664;BME280;8445;51.270;9.434;2023-04-04T12:09:34;100553.53;;;6.68;45.32
16664;BME280;8445;51.270;9.434;2023-04-04T12:12:00;100548.47;;;6.64;46.06
16664;BME280;8445;51.270;9.434;2023-04-04T12:14:25;100544.28;;;6.58;45.82
16664;BME280;8445;51.270;9.434;2023-04-04T12:16:55;100554.25;;;6.50;43.99
16664;BME280;8445;51.270;9.434;2023-04-04T12:19:22;100547.91;;;6.56;46.00
16664;BME280;8445;51.270;9.434;2023-04-04T12:21:50;100544.00;;;6.66;46.21
16664;BME280;8445;51.270;9.434;2023-04-04T12:24:16;100536.91;;;6.68;45.90
16664;BME280;8445;51.270;9.434;2023-04-04T12:26:48;100530.53;;;6.74;44.72
16664;BME280;8445;51.270;9.434;2023-04-04T12:29:15;100526.72;;;6.81;45.37
16664;BME280;8445;51.270;9.434;2023-04-04T12:31:43;100534.22;;;6.90;46.01
16664;BME280;8445;51.270;9.434;2023-04-04T12:34:20;100532.41;;;6.92;42.45
16664;BME280;8445;51.270;9.434;2023-04-04T12:36:49;100519.91;;;6.97;45.59
16664;BME280;8445;51.270;9.434;2023-04-04T12:39:15;100512.00;;;6.97;44.91
16664;BME280;8445;51.270;9.434;2023-04-04T12:42:02;100518.56;;;7.08;42.65
16664;BME280;8445;51.270;9.434;2023-04-04T12:44:36;100517.13;;;7.01;43.15
16664;BME280;8445;51.270;9.434;2023-04-04T12:47:05;100514.88;;;7.12;44.66
16664;BME280;8445;51.270;9.434;2023-04-04T12:49:39;100514.63;;;7.18;44.59
16664;BME280;8445;51.270;9.434;2023-04-04T12:52:06;100507.50;;;7.20;44.97
16664;BME280;8445;51.270;9.434;2023-04-04T12:54:37;100500.00;;;7.32;45.80
16664;BME280;8445;51.270;9.434;2023-04-04T12:57:04;100501.03;;;7.48;45.41
16664;BME280;8445;51.270;9.434;2023-04-04T12:59:31;100496.91;;;7.62;45.46
16664;BME280;8445;51.270;9.434;2023-04-04T13:02:00;100485.78;;;7.74;45.08
16664;BME280;8445;51.270;9.434;2023-04-04T13:04:26;100492.50;;;7.81;42.87
16664;BME280;8445;51.270;9.434;2023-04-04T13:06:52;100487.94;;;8.04;45.65
16664;BME280;8445;51.270;9.434;2023-04-04T13:09:19;100486.34;;;8.19;45.45
16664;BME280;8445;51.270;9.434;2023-04-04T13:14:20;100482.63;;;8.78;46.20
16664;BME280;8445;51.270;9.434;2023-04-04T13:17:00;100475.44;;;9.15;43.12
16664;BME280;8445;51.270;9.434;2023-04-04T13:19:27;100469.38;;;9.46;46.64
16664;BME280;8445;51.270;9.434;2023-04-04T13:21:52;100462.94;;;9.84;46.27
16664;BME280;8445;51.270;9.434;2023-04-04T13:24:18;100464.78;;;10.14;45.97
16664;BME280;8445;51.270;9.434;2023-04-04T13:26:43;100458.81;;;10.27;45.69
16664;BME280;8445;51.270;9.434;2023-04-04T13:29:09;100460.06;;;10.35;45.69
16664;BME280;8445;51.270;9.434;2023-04-04T13:31:35;100454.38;;;10.43;45.68